Time;durP1;ratioP1;P1;durP2;ratioP2;P2;SDS_P1;SDS_P2;PMS_P1;PMS_P2;Temp;Humidity;BMP_temperature;BMP_pressure;BME280_temperature;BME280_humidity;BME280_pressure;Samples;Min_cycle;Max_cycle;Signal;HPM_P1;HPM_P2
2022/08/15 00:00:45;;;;;;;6.68;4.25;;;19.70;76.90;;;;;;5016111;28;20022;-95
2022/08/15 00:03:28;;;;;;;4.32;3.65;;;19.60;77.00;;;;;;5016468;28;20030;-93
2022/08/15 00:06:00;;;;;;;6.45;3.28;;;19.50;77.20;;;;;;5016923;28;20545;-95
2022/08/15 00:08:29;;;;;;;6.07;3.83;;;19.50;77.40;;;;;;5017901;28;20080;-93
2022/08/15 00:11:08;;;;;;;5.95;3.42;;;19.40;77.60;;;;;;5017539;28;20041;-93
2022/08/15 00:13:34;;;;;;;6.00;3.65;;;19.30;77.90;;;;;;5026006;28;20026;-93
2022/08/15 00:16:01;;;;;;;5.57;4.00;;;19.30;78.20;;;;;;5035064;28;20483;-92
2022/08/15 00:18:28;;;;;;;5.90;3.63;;;19.30;78.40;;;;;;5036598;28;20045;-93
2022/08/15 00:20:54;;;;;;;4.20;3.50;;;19.30;78.70;;;;;;5036914;28;20010;-94
2022/08/15 00:23:24;;;;;;;5.80;3.78;;;19.30;78.90;;;;;;5033636;28;20034;-92
2022/08/15 00:25:53;;;;;;;5.65;4.30;;;19.20;79.10;;;;;;5033086;28;20014;-93
2022/08/15 00:28:19;;;;;;;8.73;4.03;;;19.10;79.50;;;;;;5020364;28;20022;-93
2022/08/15 00:30:46;;;;;;;10.65;3.90;;;19.10;79.90;;;;;;5020053;28;20025;-94
2022/08/15 00:33:13;;;;;;;5.07;4.07;;;19.10;80.40;;;;;;5001498;28;20057;-94
2022/08/15 00:35:43;;;;;;;5.97;3.78;;;19.00;80.80;;;;;;5028883;28;20033;-95
2022/08/15 00:38:22;;;;;;;4.93;4.25;;;18.90;81.20;;;;;;5025737;28;20033;-94
2022/08/15 00:43:43;;;;;;;5.60;4.07;;;18.90;82.40;;;;;;5025584;28;20041;-93
2022/08/15 00:46:11;;;;;;;7.85;3.88;;;18.80;82.80;;;;;;5023568;28;20030;-93
2022/08/15 00:48:42;;;;;;;6.57;3.45;;;18.70;83.40;;;;;;5024718;28;20029;-93
2022/08/15 00:51:24;;;;;;;8.23;3.95;;;18.70;84.00;;;;;;5023299;28;20071;-94
2022/08/15 00:54:06;;;;;;;4.15;3.75;;;18.60;85.00;;;;;;5021838;28;20038;-93
2022/08/15 00:56:40;;;;;;;3.90;3.30;;;18.60;85.50;;;;;;5023076;28;20032;-94
2022/08/15 00:59:08;;;;;;;6.18;3.80;;;18.50;86.30;;;;;;5023341;28;20523;-92
2022/08/15 01:01:35;;;;;;;6.35;3.78;;;18.50;86.70;;;;;;5024917;28;20022;-93
2022/08/15 01:04:00;;;;;;;5.20;3.65;;;18.50;87.30;;;;;;5026118;28;20098;-92
2022/08/15 01:06:26;;;;;;;4.88;3.80;;;18.40;87.80;;;;;;5023662;28;20029;-93
2022/08/15 01:08:53;;;;;;;6.32;4.30;;;18.40;88.50;;;;;;5022776;28;20057;-92
2022/08/15 01:11:31;;;;;;;7.93;3.78;;;18.40;89.10;;;;;;5023072;28;20383;-93
2022/08/15 01:14:01;;;;;;;5.15;4.13;;;18.40;89.70;;;;;;5023081;28;20521;-93
2022/08/15 01:16:29;;;;;;;16.55;5.95;;;18.40;90.00;;;;;;5021569;28;20045;-94
2022/08/15 01:18:56;;;;;;;8.85;4.18;;;18.30;90.30;;;;;;5031193;28;20076;-92
2022/08/15 01:22:00;;;;;;;5.20;4.10;;;18.30;90.50;;;;;;5033407;28;20025;-93
2022/08/15 01:24:59;;;;;;;8.35;4.20;;;18.20;90.80;;;;;;5049846;28;20049;-93
2022/08/15 01:27:32;;;;;;;7.72;3.90;;;18.20;91.00;;;;;;5021690;28;20026;-94
2022/08/15 01:29:59;;;;;;;6.35;4.07;;;18.20;91.20;;;;;;5021250;28;20049;-89
2022/08/15 01:32:25;;;;;;;6.53;3.97;;;18.10;91.40;;;;;;5024760;28;20022;-92
2022/08/15 01:34:52;;;;;;;7.20;4.00;;;18.20;91.70;;;;;;5021404;28;20050;-92
2022/08/15 01:37:19;;;;;;;6.60;3.92;;;18.10;91.90;;;;;;5021311;28;20120;-94
2022/08/15 01:40:21;;;;;;;6.80;4.18;;;18.10;92.10;;;;;;5020048;28;20084;-93
2022/08/15 01:42:48;;;;;;;5.35;3.88;;;18.10;92.30;;;;;;5039170;28;20029;-92
2022/08/15 01:45:20;;;;;;;6.15;4.15;;;18.10;92.50;;;;;;5036785;28;20037;-94
2022/08/15 01:48:06;;;;;;;8.15;4.10;;;18.10;92.60;;;;;;5036052;28;20060;-93
2022/08/15 01:50:42;;;;;;;5.70;3.80;;;18.10;92.90;;;;;;5038431;28;20029;-93
2022/08/15 01:53:39;;;;;;;6.60;4.20;;;18.10;93.00;;;;;;5039858;28;20057;-92
2022/08/15 01:56:14;;;;;;;10.10;4.10;;;18.00;93.20;;;;;;5060829;28;20104;-93
2022/08/15 01:58:42;;;;;;;5.20;3.95;;;18.00;93.30;;;;;;5040498;28;20141;-92
2022/08/15 02:01:12;;;;;;;6.63;4.30;;;18.00;93.50;;;;;;5056837;28;20116;-91
2022/08/15 02:03:40;;;;;;;6.57;4.70;;;18.00;93.70;;;;;;5037753;28;20029;-93
2022/08/15 02:06:14;;;;;;;5.63;4.15;;;17.90;93.80;;;;;;5056005;28;20037;-92
2022/08/15 02:08:41;;;;;;;6.18;3.97;;;17.80;94.10;;;;;;5040501;28;20097;-90
2022/08/15 02:11:09;;;;;;;7.13;4.78;;;17.80;94.30;;;;;;5041505;28;20086;-92
2022/08/15 02:13:37;;;;;;;6.30;4.45;;;17.80;94.60;;;;;;5058117;28;20086;-91
2022/08/15 02:16:03;;;;;;;7.45;4.68;;;17.80;94.80;;;;;;5042965;28;20088;-93
2022/08/15 02:18:29;;;;;;;5.68;4.32;;;17.70;95.10;;;;;;5061608;28;20049;-91
2022/08/15 02:20:57;;;;;;;5.07;3.70;;;17.70;95.30;;;;;;5030654;28;20049;-91
2022/08/15 02:23:23;;;;;;;14.20;5.35;;;17.70;95.50;;;;;;5028898;28;20093;-93
2022/08/15 02:25:51;;;;;;;9.25;4.50;;;17.80;95.60;;;;;;5024079;28;20022;-92
2022/08/15 02:28:18;;;;;;;10.73;4.80;;;17.80;95.70;;;;;;5024621;28;20034;-92
2022/08/15 02:30:46;;;;;;;7.95;4.65;;;17.70;95.80;;;;;;5015701;28;20021;-92
2022/08/15 02:33:12;;;;;;;7.07;4.03;;;17.70;96.00;;;;;;5014220;28;20065;-92
2022/08/15 02:35:38;;;;;;;7.50;4.40;;;17.60;96.20;;;;;;5014027;28;20030;-92
2022/08/15 02:38:05;;;;;;;5.60;4.28;;;17.60;96.40;;;;;;5017769;28;20061;-91
2022/08/15 02:40:33;;;;;;;5.53;4.05;;;17.60;96.60;;;;;;5017517;28;20117;-94
2022/08/15 02:43:04;;;;;;;7.85;4.38;;;17.60;96.70;;;;;;5017680;28;20563;-91
2022/08/15 02:45:34;;;;;;;7.45;3.95;;;17.60;96.80;;;;;;5017632;28;20041;-93
2022/08/15 02:48:00;;;;;;;5.47;4.43;;;17.60;96.90;;;;;;5017194;28;20045;-92
2022/08/15 02:50:26;;;;;;;9.13;4.03;;;17.60;97.00;;;;;;5017083;28;20133;-92
2022/08/15 02:52:51;;;;;;;6.60;4.07;;;17.50;97.10;;;;;;5016305;28;20120;-94
2022/08/15 02:55:19;;;;;;;5.15;4.00;;;17.50;97.30;;;;;;5016830;28;20045;-93
2022/08/15 02:57:45;;;;;;;4.57;4.05;;;17.50;97.40;;;;;;5016706;28;20066;-93
2022/08/15 03:00:16;;;;;;;4.95;3.70;;;17.40;97.50;;;;;;5016239;28;20029;-93
2022/08/15 03:02:57;;;;;;;9.05;4.00;;;17.40;97.70;;;;;;5016281;28;20068;-94
2022/08/15 03:05:23;;;;;;;;;;;17.40;97.90;;;;;;5017778;28;20022;-92
2022/08/15 03:07:50;;;;;;;6.32;3.78;;;17.40;97.90;;;;;;5017115;28;19956;-93
2022/08/15 03:10:16;;;;;;;6.32;4.00;;;17.40;97.80;;;;;;5019935;28;20037;-93
2022/08/15 03:12:53;;;;;;;6.47;3.88;;;17.40;97.80;;;;;;5022574;28;20030;-93
2022/08/15 03:15:20;;;;;;;6.25;4.10;;;17.30;98.00;;;;;;5036008;28;20018;-92
2022/08/15 03:17:46;;;;;;;6.15;3.92;;;17.30;98.10;;;;;;5033789;28;20041;-92
2022/08/15 03:20:12;;;;;;;6.00;4.07;;;17.30;98.30;;;;;;5030874;28;20022;-92
2022/08/15 03:22:43;;;;;;;3.97;3.50;;;17.20;98.40;;;;;;5026685;28;20022;-92
2022/08/15 03:25:09;;;;;;;9.10;4.70;;;17.20;98.60;;;;;;5019443;28;20022;-92
2022/08/15 03:27:35;;;;;;;5.22;4.00;;;17.20;98.60;;;;;;5017849;28;20037;-93
2022/08/15 03:30:01;;;;;;;5.18;4.05;;;17.20;98.60;;;;;;5028678;28;20038;-92
2022/08/15 03:32:27;;;;;;;6.20;4.13;;;17.20;98.70;;;;;;5034134;28;20068;-93
2022/08/15 03:34:52;;;;;;;10.00;4.43;;;17.20;98.80;;;;;;5036764;28;20033;-93
2022/08/15 03:37:18;;;;;;;7.85;3.80;;;17.10;98.90;;;;;;5036509;28;20097;-92
2022/08/15 03:39:44;;;;;;;5.68;4.10;;;17.20;99.00;;;;;;5036363;28;20033;-93
2022/08/15 03:42:10;;;;;;;4.88;3.65;;;17.10;99.10;;;;;;5036395;28;20175;-92
2022/08/15 03:44:36;;;;;;;5.63;4.43;;;17.10;99.30;;;;;;5040159;28;20026;-93
2022/08/15 03:47:02;;;;;;;5.70;4.30;;;17.10;99.40;;;;;;5040867;28;20036;-94
2022/08/15 03:49:28;;;;;;;6.97;4.47;;;17.00;99.50;;;;;;5039710;28;20580;-93
2022/08/15 03:51:54;;;;;;;11.30;4.75;;;17.00;99.80;;;;;;5036471;28;20110;-91
2022/08/15 03:54:20;;;;;;;6.60;4.45;;;16.90;99.90;;;;;;5036082;28;20459;-93
2022/08/15 03:56:45;;;;;;;9.65;4.43;;;16.90;99.90;;;;;;5035916;28;20025;-93
2022/08/15 03:59:11;;;;;;;10.05;5.18;;;16.90;99.90;;;;;;5036171;28;20033;-92
2022/08/15 04:01:38;;;;;;;7.78;4.47;;;16.80;99.90;;;;;;5037311;28;20491;-93
2022/08/15 04:04:04;;;;;;;7.75;4.60;;;16.80;99.90;;;;;;5035645;28;20056;-93
2022/08/15 04:06:30;;;;;;;6.65;4.35;;;16.80;99.90;;;;;;5037179;28;20013;-94
2022/08/15 04:08:57;;;;;;;5.65;4.45;;;16.90;99.90;;;;;;5036265;28;20045;-94
2022/08/15 04:11:27;;;;;;;4.88;4.25;;;16.90;99.90;;;;;;5044302;28;20029;-93
2022/08/15 04:13:54;;;;;;;7.15;4.32;;;16.90;99.90;;;;;;5036044;28;20038;-95
2022/08/15 04:16:22;;;;;;;5.35;4.50;;;16.80;99.90;;;;;;5036390;28;20025;-93
2022/08/15 04:18:48;;;;;;;5.28;4.22;;;16.80;99.90;;;;;;5035590;28;20030;-93
2022/08/15 04:21:14;;;;;;;4.90;4.28;;;16.80;99.90;;;;;;5035929;28;20036;-94
2022/08/15 04:23:43;;;;;;;5.20;4.07;;;16.80;99.90;;;;;;5035684;28;20036;-94
2022/08/15 04:26:09;;;;;;;7.85;4.35;;;16.80;99.90;;;;;;5035479;28;20108;-94
2022/08/15 04:28:34;;;;;;;8.07;4.57;;;16.70;99.90;;;;;;5036696;28;20068;-94
2022/08/15 04:31:04;;;;;;;7.95;4.53;;;16.70;99.90;;;;;;5036580;28;20027;-92
2022/08/15 04:33:32;;;;;;;10.70;4.50;;;16.70;99.90;;;;;;5038845;28;20089;-93
2022/08/15 04:36:09;;;;;;;8.13;4.75;;;16.70;99.90;;;;;;5039206;28;20021;-90
2022/08/15 04:38:36;;;;;;;7.00;4.90;;;16.70;99.90;;;;;;5043497;28;20029;-90
2022/08/15 04:41:04;;;;;;;5.63;4.82;;;16.70;99.90;;;;;;5046261;28;20029;-90
2022/08/15 04:43:31;;;;;;;8.05;5.07;;;16.60;99.90;;;;;;5046126;28;20075;-92
2022/08/15 04:45:58;;;;;;;7.03;5.15;;;16.50;99.90;;;;;;5054636;28;20022;-90
2022/08/15 04:48:25;;;;;;;8.32;5.10;;;16.40;99.90;;;;;;5054778;28;20029;-90
2022/08/15 04:50:53;;;;;;;5.72;4.55;;;16.40;99.90;;;;;;5041521;28;20055;-90
2022/08/15 04:53:21;;;;;;;6.55;4.78;;;16.30;99.90;;;;;;5037923;28;20037;-91
2022/08/15 04:55:49;;;;;;;7.43;5.00;;;16.30;99.90;;;;;;5039787;28;20022;-91
2022/08/15 04:58:16;;;;;;;7.22;4.45;;;16.30;99.90;;;;;;5036598;28;20037;-90
2022/08/15 05:00:50;;;;;;;9.32;5.13;;;16.30;99.90;;;;;;5036353;28;20036;-90
2022/08/15 05:03:18;;;;;;;6.80;4.43;;;16.30;99.90;;;;;;5036249;28;20475;-91
2022/08/15 05:05:48;;;;;;;6.57;5.00;;;16.30;99.90;;;;;;5037411;28;20033;-91
2022/08/15 05:08:14;;;;;;;6.20;4.40;;;16.20;99.90;;;;;;5037034;28;20029;-92
2022/08/15 05:10:41;;;;;;;5.95;5.20;;;16.20;99.90;;;;;;5036134;28;20025;-91
2022/08/15 05:13:20;;;;;;;6.93;4.75;;;16.20;99.90;;;;;;5037530;28;20034;-92
2022/08/15 05:15:47;;;;;;;8.65;5.32;;;16.20;99.90;;;;;;5039759;28;20048;-91
2022/08/15 05:18:14;;;;;;;5.60;5.00;;;16.20;99.90;;;;;;5036988;28;20026;-92
2022/08/15 05:20:41;;;;;;;5.57;4.57;;;16.10;99.90;;;;;;5037918;28;20037;-92
2022/08/15 05:23:10;;;;;;;6.38;4.70;;;16.10;99.90;;;;;;5038615;28;20416;-92
2022/08/15 05:25:39;;;;;;;10.38;5.15;;;16.10;99.90;;;;;;5042966;28;20005;-90
2022/08/15 05:28:05;;;;;;;12.05;4.93;;;16.10;99.90;;;;;;5055444;28;20097;-86
2022/08/15 05:30:32;;;;;;;6.35;5.00;;;16.10;99.90;;;;;;5053996;28;20012;-90
2022/08/15 05:33:11;;;;;;;9.38;5.25;;;16.10;99.90;;;;;;5054241;28;20044;-87
2022/08/15 05:35:42;;;;;;;7.47;5.85;;;16.10;99.90;;;;;;5055924;28;20071;-87
2022/08/15 05:38:14;;;;;;;8.90;5.45;;;16.10;99.90;;;;;;5055337;28;20017;-88
2022/08/15 05:41:07;;;;;;;7.82;5.45;;;16.10;99.90;;;;;;5040500;28;20028;-92
2022/08/15 05:44:01;;;;;;;7.07;4.75;;;16.10;99.90;;;;;;5039680;28;20036;-93
2022/08/15 05:46:26;;;;;;;7.78;4.78;;;16.10;99.90;;;;;;5038167;28;20096;-91
2022/08/15 05:49:09;;;;;;;6.35;4.70;;;16.10;99.90;;;;;;5037913;28;20063;-92
2022/08/15 05:52:06;;;;;;;7.63;5.63;;;16.10;99.90;;;;;;5029209;28;20026;-91
2022/08/15 05:55:02;;;;;;;7.18;5.15;;;16.20;99.90;;;;;;5027682;28;20438;-92
2022/08/15 05:57:42;;;;;;;7.03;4.93;;;16.30;99.90;;;;;;5045554;28;20032;-94
2022/08/15 06:00:12;;;;;;;5.45;4.93;;;16.30;99.90;;;;;;5052450;28;20029;-91
2022/08/15 06:02:52;;;;;;;8.87;6.00;;;16.40;99.90;;;;;;5044947;28;20034;-91
2022/08/15 06:05:26;;;;;;;11.80;5.33;;;16.40;99.90;;;;;;5028839;28;20268;-92
2022/08/15 06:07:56;;;;;;;9.25;4.97;;;16.40;99.90;;;;;;5025849;28;20047;-93
2022/08/15 06:10:33;;;;;;;7.25;5.03;;;16.40;99.90;;;;;;5038354;28;20048;-92
2022/08/15 06:13:10;;;;;;;7.78;5.22;;;16.40;99.90;;;;;;5036716;28;20068;-94
2022/08/15 06:15:52;;;;;;;7.85;5.32;;;16.50;99.90;;;;;;5031583;28;20040;-92
2022/08/15 06:18:20;;;;;;;5.82;4.72;;;16.50;99.90;;;;;;5034011;28;20021;-93
2022/08/15 06:21:15;;;;;;;10.55;4.97;;;16.60;99.90;;;;;;5043407;28;20040;-91
2022/08/15 06:24:02;;;;;;;8.18;5.43;;;16.70;99.90;;;;;;5063498;28;20025;-92
2022/08/15 06:26:58;;;;;;;7.22;5.35;;;16.80;99.90;;;;;;5065742;28;20089;-93
2022/08/15 06:29:30;;;;;;;6.88;5.05;;;16.80;99.90;;;;;;5042989;28;20033;-91
2022/08/15 06:32:13;;;;;;;6.07;5.07;;;16.80;99.90;;;;;;5044142;28;20157;-92
2022/08/15 06:35:04;;;;;;;6.15;5.25;;;16.90;99.90;;;;;;5029098;28;20060;-94
2022/08/15 06:37:38;;;;;;;;;;;16.90;99.90;;;;;;5035662;28;20044;-92
2022/08/15 06:40:14;;;;;;;5.90;4.82;;;17.00;99.90;;;;;;5052262;28;20274;-93
2022/08/15 06:42:43;;;;;;;11.40;5.47;;;17.10;99.90;;;;;;5039924;28;20083;-93
2022/08/15 06:45:17;;;;;;;7.35;5.47;;;17.10;99.90;;;;;;5035415;28;20535;-92
2022/08/15 06:47:46;;;;;;;6.50;5.30;;;17.20;99.90;;;;;;5025585;28;20056;-91
2022/08/15 06:50:19;;;;;;;8.20;5.20;;;17.30;99.90;;;;;;5034445;28;20060;-92
2022/08/15 06:52:54;;;;;;;10.00;5.28;;;17.40;99.90;;;;;;5020287;28;20034;-92
2022/08/15 06:55:22;;;;;;;5.28;4.78;;;17.40;99.90;;;;;;5017444;28;20022;-92
2022/08/15 06:58:00;;;;;;;13.48;5.35;;;17.50;99.90;;;;;;5018467;28;20080;-91
2022/08/15 07:00:29;;;;;;;16.15;4.80;;;17.60;99.90;;;;;;5021462;28;20388;-90
2022/08/15 07:03:19;;;;;;;8.93;5.45;;;17.70;99.90;;;;;;5019537;28;20508;-93
2022/08/15 07:05:54;;;;;;;10.18;5.70;;;17.70;99.90;;;;;;5019447;28;20018;-91
2022/08/15 07:08:46;;;;;;;7.68;5.95;;;17.80;99.90;;;;;;5023589;28;20400;-92
2022/08/15 07:11:37;;;;;;;7.97;5.10;;;17.80;99.90;;;;;;5019599;28;20495;-91
2022/08/15 07:14:24;;;;;;;9.55;5.35;;;17.70;99.90;;;;;;5020752;28;20045;-92
2022/08/15 07:17:08;;;;;;;5.32;4.47;;;17.80;99.90;;;;;;5020620;28;20476;-93
2022/08/15 07:19:36;;;;;;;6.43;4.68;;;17.80;99.90;;;;;;5032178;28;20034;-90
2022/08/15 07:22:02;;;;;;;7.88;5.50;;;17.90;99.90;;;;;;5032430;28;20022;-93
2022/08/15 07:24:31;;;;;;;9.70;5.00;;;18.10;99.90;;;;;;5017781;28;20029;-92
2022/08/15 07:27:05;;;;;;;8.20;4.65;;;18.10;99.90;;;;;;5018127;28;20093;-95
2022/08/15 07:29:37;;;;;;;11.90;4.70;;;18.20;99.90;;;;;;5010853;28;20460;-95
2022/08/15 07:32:09;;;;;;;7.50;5.22;;;18.40;99.90;;;;;;5009555;28;20050;-95
2022/08/15 07:34:36;;;;;;;11.18;5.68;;;18.50;99.90;;;;;;5023897;28;20053;-92
2022/08/15 07:37:06;;;;;;;6.07;4.05;;;18.60;99.90;;;;;;5026078;28;20049;-94
2022/08/15 07:39:41;;;;;;;6.63;4.95;;;18.70;99.90;;;;;;5012990;28;20034;-93
2022/08/15 07:42:15;;;;;;;6.40;4.97;;;18.90;99.90;;;;;;5009804;28;20026;-95
2022/08/15 07:44:59;;;;;;;7.63;5.35;;;19.00;99.90;;;;;;4997644;28;20030;-94
2022/08/15 07:47:33;;;;;;;7.60;5.25;;;19.10;99.90;;;;;;5039996;28;20069;-95
2022/08/15 07:50:22;;;;;;;6.60;4.63;;;19.30;99.90;;;;;;5005703;28;20022;-95
2022/08/15 07:52:56;;;;;;;7.45;5.18;;;19.40;99.90;;;;;;5008322;28;20467;-94
2022/08/15 07:55:24;;;;;;;6.35;4.47;;;19.50;99.90;;;;;;5005710;28;20022;-93
2022/08/15 07:58:07;;;;;;;9.57;5.05;;;19.60;99.90;;;;;;5007756;28;20109;-93
2022/08/15 08:00:35;;;;;;;7.93;5.13;;;19.80;99.90;;;;;;5005279;28;20041;-93
2022/08/15 08:03:05;;;;;;;7.85;5.10;;;19.90;99.90;;;;;;5013121;28;20022;-94
2022/08/15 08:05:54;;;;;;;9.50;5.47;;;20.00;99.90;;;;;;5018727;28;20160;-95
2022/08/15 08:08:23;;;;;;;8.63;5.22;;;20.20;99.90;;;;;;5013535;28;20025;-91
2022/08/15 08:11:25;;;;;;;8.20;5.00;;;20.30;99.90;;;;;;5015902;28;20034;-94
2022/08/15 08:14:15;;;;;;;9.77;5.25;;;20.40;99.80;;;;;;5013274;28;20488;-93
2022/08/15 08:16:55;;;;;;;7.68;5.18;;;20.60;99.60;;;;;;5006844;28;20030;-93
2022/08/15 08:19:49;;;;;;;8.00;4.82;;;20.60;99.40;;;;;;5010070;28;20053;-93
2022/08/15 08:22:58;;;;;;;6.03;5.28;;;20.80;99.30;;;;;;5000754;28;20042;-94
2022/08/15 08:25:35;;;;;;;8.75;4.82;;;20.90;99.10;;;;;;5009286;28;20038;-93
2022/08/15 08:28:10;;;;;;;14.50;5.57;;;21.10;98.90;;;;;;5008478;28;20026;-92
2022/08/15 08:30:55;;;;;;;8.77;4.68;;;21.20;98.70;;;;;;5000418;28;20053;-94
2022/08/15 08:33:37;;;;;;;10.90;5.03;;;21.40;97.80;;;;;;4999028;28;20054;-96
2022/08/15 08:36:25;;;;;;;9.75;5.43;;;21.60;97.00;;;;;;5008724;28;20092;-94
2022/08/15 08:39:14;;;;;;;10.63;5.20;;;21.80;95.80;;;;;;5016761;28;20025;-95
2022/08/15 08:42:06;;;;;;;8.68;5.47;;;21.90;95.00;;;;;;5014348;28;20025;-95
2022/08/15 08:44:56;;;;;;;7.47;4.88;;;22.00;94.20;;;;;;5013165;28;20100;-94
2022/08/15 08:47:27;;;;;;;9.88;4.75;;;22.00;93.80;;;;;;5012316;28;20072;-93
2022/08/15 08:50:24;;;;;;;11.98;5.38;;;22.00;93.70;;;;;;5015621;28;20026;-93
2022/08/15 08:53:13;;;;;;;6.85;4.80;;;22.10;93.40;;;;;;5015388;28;20056;-95
2022/08/15 08:55:54;;;;;;;8.80;4.77;;;22.10;93.30;;;;;;5015469;28;20042;-95
2022/08/15 08:58:33;;;;;;;10.98;6.18;;;22.20;93.10;;;;;;5017168;28;20034;-95
2022/08/15 09:00:59;;;;;;;9.95;4.93;;;22.20;93.10;;;;;;5015570;28;20029;-95
2022/08/15 09:03:37;;;;;;;7.65;4.28;;;22.20;93.10;;;;;;5026515;28;20048;-95
2022/08/15 09:06:04;;;;;;;8.40;5.50;;;22.20;92.80;;;;;;5027169;28;20049;-95
2022/08/15 09:08:42;;;;;;;12.85;5.47;;;22.30;92.60;;;;;;5011345;28;20029;-94
2022/08/15 09:11:21;;;;;;;13.98;5.97;;;22.30;92.50;;;;;;5013949;28;20087;-92
2022/08/15 09:13:49;;;;;;;10.32;6.15;;;22.20;92.60;;;;;;5016030;28;20078;-95
2022/08/15 09:16:19;;;;;;;15.63;6.53;;;22.20;92.70;;;;;;5014542;28;20022;-95
2022/08/15 09:19:10;;;;;;;14.05;5.35;;;22.20;93.00;;;;;;5018585;28;20034;-96
2022/08/15 09:21:37;;;;;;;18.60;6.90;;;22.20;93.40;;;;;;5018811;28;20037;-95
2022/08/15 09:24:05;;;;;;;9.43;6.55;;;22.20;93.50;;;;;;5037796;28;20052;-94
2022/08/15 09:26:41;;;;;;;11.38;7.40;;;22.20;93.90;;;;;;5036655;28;20022;-95
2022/08/15 09:29:33;;;;;;;8.48;6.20;;;22.10;94.20;;;;;;5044211;28;20033;-95
2022/08/15 09:32:23;;;;;;;10.52;6.78;;;22.00;94.80;;;;;;5037124;28;20022;-96
2022/08/15 09:35:07;;;;;;;11.15;6.82;;;22.00;95.10;;;;;;5029931;28;20041;-95
2022/08/15 09:38:02;;;;;;;12.32;7.72;;;21.90;95.60;;;;;;5038322;28;20010;-95
2022/08/15 09:40:35;;;;;;;12.90;7.72;;;21.90;96.00;;;;;;5026368;28;20046;-95
2022/08/15 09:43:10;;;;;;;11.10;7.53;;;21.80;96.40;;;;;;5032791;28;20053;-95
2022/08/15 09:46:24;;;;;;;12.35;7.63;;;21.80;96.70;;;;;;5033966;28;20107;-94
2022/08/15 09:48:53;;;;;;;11.52;6.70;;;21.80;97.00;;;;;;5043497;28;20067;-94
2022/08/15 09:51:58;;;;;;;12.32;7.55;;;21.70;97.10;;;;;;5047142;28;20033;-94
2022/08/15 09:54:27;;;;;;;11.82;6.88;;;21.70;97.20;;;;;;5042561;28;20117;-93
2022/08/15 09:57:18;;;;;;;10.55;7.05;;;21.70;97.20;;;;;;5030982;28;20022;-96
2022/08/15 09:59:43;;;;;;;;;;;21.70;97.20;;;;;;5029968;28;20082;-96
2022/08/15 10:02:21;;;;;;;15.55;7.65;;;21.70;97.20;;;;;;5028544;28;19996;-96
2022/08/15 10:04:50;;;;;;;12.68;5.30;;;21.70;97.20;;;;;;5032479;28;20029;-96
2022/08/15 10:07:18;;;;;;;8.55;6.07;;;21.80;97.10;;;;;;5030946;28;20028;-96
2022/08/15 10:10:15;;;;;;;11.48;7.80;;;21.90;97.10;;;;;;5031976;28;20136;-93
2022/08/15 10:13:06;;;;;;;11.77;6.45;;;22.00;97.10;;;;;;5022300;28;20431;-96
2022/08/15 10:15:46;;;;;;;10.05;6.35;;;22.00;97.10;;;;;;5015450;28;20529;-95
2022/08/15 10:18:27;;;;;;;9.30;7.72;;;22.00;97.00;;;;;;5016187;28;20030;-93
2022/08/15 10:21:01;;;;;;;;;;;22.00;97.20;;;;;;5027275;28;20380;-94
2022/08/15 10:23:40;;;;;;;11.32;6.85;;;22.10;97.40;;;;;;5036833;28;19936;-92
2022/08/15 10:26:31;;;;;;;11.55;7.80;;;22.10;97.40;;;;;;5032751;28;20022;-94
2022/08/15 10:29:11;;;;;;;;;;;22.20;97.70;;;;;;5015644;28;20099;-92
2022/08/15 10:31:43;;;;;;;12.65;7.20;;;22.40;97.60;;;;;;5015167;28;19909;-94
2022/08/15 10:34:18;;;;;;;15.13;7.20;;;22.50;97.30;;;;;;5021412;28;20038;-93
2022/08/15 10:37:20;;;;;;;12.95;6.88;;;22.60;97.10;;;;;;5035209;28;20033;-90
2022/08/15 10:39:53;;;;;;;11.90;6.15;;;22.70;97.00;;;;;;5028461;28;20037;-92
2022/08/15 10:43:07;;;;;;;11.45;7.38;;;22.90;96.70;;;;;;5027520;28;20085;-92
2022/08/15 10:46:04;;;;;;;11.35;6.22;;;23.00;96.20;;;;;;5028623;28;20025;-93
2022/08/15 10:48:49;;;;;;;11.88;7.45;;;23.10;95.70;;;;;;5029394;28;20040;-93
2022/08/15 10:51:37;;;;;;;16.98;7.43;;;23.10;95.30;;;;;;5026503;28;20022;-90
2022/08/15 10:54:22;;;;;;;9.50;6.50;;;23.20;95.20;;;;;;5035558;28;20021;-90
2022/08/15 10:56:54;;;;;;;12.32;7.00;;;23.10;95.10;;;;;;5035812;28;20041;-87
2022/08/15 10:59:42;;;;;;;10.05;6.90;;;23.20;95.20;;;;;;5024312;28;20017;-88
2022/08/15 11:02:21;;;;;;;12.15;5.90;;;23.20;95.10;;;;;;5030428;28;20048;-94
2022/08/15 11:04:48;;;;;;;9.73;6.10;;;23.20;95.00;;;;;;5026387;28;20042;-84
2022/08/15 11:07:21;;;;;;;8.95;6.05;;;23.20;94.90;;;;;;5021693;28;20026;-94
2022/08/15 11:09:56;;;;;;;11.65;6.18;;;23.30;94.60;;;;;;5017567;28;20072;-93
2022/08/15 11:12:24;;;;;;;14.00;5.95;;;23.30;94.40;;;;;;5012625;28;20022;-96
2022/08/15 11:14:55;;;;;;;13.93;6.68;;;23.40;94.60;;;;;;5021191;28;20041;-95
2022/08/15 11:17:24;;;;;;;14.40;6.20;;;23.60;94.80;;;;;;5014938;28;20018;-95
2022/08/15 11:19:58;;;;;;;12.32;6.55;;;23.80;95.20;;;;;;5023318;28;20026;-94
2022/08/15 11:22:52;;;;;;;10.50;6.68;;;24.00;95.50;;;;;;5031369;28;20041;-94
2022/08/15 11:25:22;;;;;;;9.07;6.30;;;24.10;95.50;;;;;;5037066;28;20376;-95
2022/08/15 11:27:59;;;;;;;7.78;5.80;;;24.30;95.40;;;;;;5042341;28;20052;-95
2022/08/15 11:30:30;;;;;;;15.02;7.15;;;24.50;94.70;;;;;;5042896;28;20026;-93
2022/08/15 11:33:19;;;;;;;10.00;6.45;;;24.70;93.50;;;;;;5025463;28;20219;-95
2022/08/15 11:35:46;;;;;;;9.93;5.97;;;25.10;92.50;;;;;;5034548;28;20036;-91
2022/08/15 11:38:16;;;;;;;10.25;5.95;;;25.50;91.60;;;;;;5035630;28;20032;-92
2022/08/15 11:40:51;;;;;;;9.18;6.10;;;25.70;90.40;;;;;;5033863;28;20041;-94
2022/08/15 11:43:18;;;;;;;9.82;6.03;;;25.90;88.60;;;;;;5031050;28;20053;-92
2022/08/15 11:45:50;;;;;;;8.98;6.40;;;26.10;86.80;;;;;;5029883;28;20037;-93
2022/08/15 11:48:29;;;;;;;11.82;5.93;;;26.20;85.40;;;;;;5025851;28;20030;-95
2022/08/15 11:51:01;;;;;;;9.85;6.07;;;26.50;83.70;;;;;;5023438;28;20515;-94
2022/08/15 11:53:32;;;;;;;8.95;6.03;;;26.80;82.20;;;;;;5015754;28;20049;-93
2022/08/15 11:55:58;;;;;;;;;;;26.90;80.30;;;;;;5015058;28;20026;-94
2022/08/15 11:58:35;;;;;;;12.63;5.55;;;26.90;79.30;;;;;;5014398;28;19906;-93
2022/08/15 12:01:28;;;;;;;8.13;5.70;;;26.90;77.70;;;;;;5014098;28;20025;-94
2022/08/15 12:04:05;;;;;;;9.55;5.50;;;26.70;76.70;;;;;;5014176;28;20076;-91
2022/08/15 12:06:35;;;;;;;7.20;4.47;;;26.50;76.70;;;;;;5013845;28;20130;-93
2022/08/15 12:09:13;;;;;;;11.07;5.50;;;26.30;76.80;;;;;;5008539;28;20046;-94
2022/08/15 12:11:44;;;;;;;9.65;4.35;;;26.10;77.20;;;;;;4996310;28;20038;-91
2022/08/15 12:14:25;;;;;;;9.40;4.90;;;25.90;78.10;;;;;;4996524;28;20034;-93
2022/08/15 12:16:55;;;;;;;7.38;5.35;;;25.70;77.60;;;;;;4997245;28;20056;-95
2022/08/15 12:19:38;;;;;;;9.80;4.80;;;25.50;77.80;;;;;;4996545;28;20034;-92
2022/08/15 12:22:15;;;;;;;7.32;4.57;;;25.30;78.30;;;;;;5001983;28;20277;-94
2022/08/15 12:24:44;;;;;;;6.15;4.53;;;25.10;78.50;;;;;;5026513;28;20057;-92
2022/08/15 12:27:11;;;;;;;7.80;4.90;;;24.90;78.90;;;;;;5029171;28;20017;-92
2022/08/15 12:29:38;;;;;;;8.50;4.55;;;24.70;79.00;;;;;;5026181;28;20026;-93
2022/08/15 12:32:08;;;;;;;5.05;4.55;;;24.60;79.40;;;;;;5023871;28;20037;-93
2022/08/15 12:34:52;;;;;;;7.55;4.88;;;24.40;79.60;;;;;;5023792;28;20041;-92
2022/08/15 12:37:24;;;;;;;9.07;4.47;;;24.30;80.40;;;;;;5019512;28;20041;-92
2022/08/15 12:39:55;;;;;;;7.20;4.65;;;24.20;81.20;;;;;;5017857;28;20034;-93
2022/08/15 12:42:30;;;;;;;8.45;4.97;;;24.10;81.70;;;;;;5012090;28;20046;-92
2022/08/15 12:45:06;;;;;;;6.93;4.03;;;24.10;82.40;;;;;;5022093;28;20050;-91
2022/08/15 12:47:33;;;;;;;4.40;3.63;;;24.00;82.40;;;;;;5023381;28;20061;-92
2022/08/15 12:50:07;;;;;;;6.93;4.13;;;24.00;82.80;;;;;;5024178;28;20026;-91
2022/08/15 12:52:33;;;;;;;6.50;3.53;;;23.90;83.00;;;;;;5021941;28;20125;-93
2022/08/15 12:54:59;;;;;;;5.75;3.92;;;24.00;83.00;;;;;;5020411;28;20396;-92
2022/08/15 12:57:26;;;;;;;6.13;3.97;;;24.00;82.70;;;;;;5018388;28;20026;-92
2022/08/15 12:59:52;;;;;;;4.82;3.13;;;23.90;82.30;;;;;;5017981;28;20271;-91
2022/08/15 13:02:19;;;;;;;7.72;3.40;;;23.90;82.10;;;;;;5016719;28;20040;-94
2022/08/15 13:04:55;;;;;;;5.45;3.90;;;23.90;81.80;;;;;;5017152;28;20034;-91
2022/08/15 13:07:34;;;;;;;4.53;3.42;;;23.80;81.50;;;;;;5018857;28;20061;-92
2022/08/15 13:10:01;;;;;;;6.03;3.50;;;23.80;81.70;;;;;;5017508;28;20022;-91
2022/08/15 13:12:27;;;;;;;6.53;3.15;;;23.80;82.10;;;;;;5017528;28;20034;-92
2022/08/15 13:14:52;;;;;;;5.05;3.40;;;23.80;82.30;;;;;;5017128;28;20099;-92
2022/08/15 13:17:18;;;;;;;5.97;3.35;;;23.70;82.40;;;;;;5016497;28;20121;-91
2022/08/15 13:25:28;;;;;;;5.97;3.45;;;23.70;83.10;;;;;;5020119;28;20032;-93
2022/08/15 13:27:59;;;;;;;6.95;3.33;;;23.60;83.80;;;;;;5017233;28;20026;-91
2022/08/15 13:30:24;;;;;;;4.97;3.03;;;23.60;84.40;;;;;;5015989;28;20052;-92